sensor_id;sensor_type;location;lat;lon;timestamp;P1;durP1;ratioP1;P2;durP2;ratioP2
77984;SDS011;67177;47.240;-1.546;2023-02-18T00:01:16;2.80;;;0.85;;
77984;SDS011;67177;47.240;-1.546;2023-02-18T00:03:43;2.47;;;0.70;;
77984;SDS011;67177;47.240;-1.546;2023-02-18T00:06:17;2.87;;;0.70;;
77984;SDS011;67177;47.240;-1.546;2023-02-18T00:08:48;2.60;;;0.70;;
77984;SDS011;67177;47.240;-1.546;2023-02-18T00:11:15;2.20;;;0.60;;
77984;SDS011;67177;47.240;-1.546;2023-02-18T00:13:41;2.25;;;0.70;;
77984;SDS011;67177;47.240;-1.546;2023-02-18T00:16:08;3.10;;;0.70;;
77984;SDS011;67177;47.240;-1.546;2023-02-18T00:18:36;3.00;;;0.95;;
77984;SDS011;67177;47.240;-1.546;2023-02-18T00:21:03;2.03;;;0.50;;
77984;SDS011;67177;47.240;-1.546;2023-02-18T00:23:30;3.63;;;0.70;;
77984;SDS011;67177;47.240;-1.546;2023-02-18T00:25:59;1.97;;;0.60;;
77984;SDS011;67177;47.240;-1.546;2023-02-18T00:28:35;3.38;;;0.80;;
77984;SDS011;67177;47.240;-1.546;2023-02-18T00:31:07;2.47;;;0.70;;
77984;SDS011;67177;47.240;-1.546;2023-02-18T00:33:36;2.13;;;0.50;;
77984;SDS011;67177;47.240;-1.546;2023-02-18T00:36:05;2.55;;;0.70;;
77984;SDS011;67177;47.240;-1.546;2023-02-18T00:38:33;1.90;;;0.60;;
77984;SDS011;67177;47.240;-1.546;2023-02-18T00:40:59;2.35;;;0.70;;
77984;SDS011;67177;47.240;-1.546;2023-02-18T00:43:26;2.55;;;0.90;;
77984;SDS011;67177;47.240;-1.546;2023-02-18T00:45:52;2.60;;;0.70;;
77984;SDS011;67177;47.240;-1.546;2023-02-18T00:48:18;2.40;;;0.70;;
77984;SDS011;67177;47.240;-1.546;2023-02-18T00:50:45;2.33;;;0.70;;
77984;SDS011;67177;47.240;-1.546;2023-02-18T00:53:11;2.85;;;0.80;;
77984;SDS011;67177;47.240;-1.546;2023-02-18T00:55:40;2.17;;;0.57;;
77984;SDS011;67177;47.240;-1.546;2023-02-18T00:58:08;2.67;;;0.70;;
77984;SDS011;67177;47.240;-1.546;2023-02-18T01:00:34;2.58;;;0.70;;
77984;SDS011;67177;47.240;-1.546;2023-02-18T01:03:00;1.70;;;0.50;;
77984;SDS011;67177;47.240;-1.546;2023-02-18T01:05:26;1.50;;;0.53;;
77984;SDS011;67177;47.240;-1.546;2023-02-18T01:07:52;1.90;;;0.50;;
77984;SDS011;67177;47.240;-1.546;2023-02-18T01:10:18;1.13;;;0.40;;
77984;SDS011;67177;47.240;-1.546;2023-02-18T01:12:44;1.60;;;0.50;;
77984;SDS011;67177;47.240;-1.546;2023-02-18T01:15:10;1.40;;;0.40;;
77984;SDS011;67177;47.240;-1.546;2023-02-18T01:17:38;1.58;;;0.60;;
77984;SDS011;67177;47.240;-1.546;2023-02-18T01:20:04;1.67;;;0.50;;
77984;SDS011;67177;47.240;-1.546;2023-02-18T01:22:31;1.58;;;0.43;;
77984;SDS011;67177;47.240;-1.546;2023-02-18T01:24:56;1.97;;;0.50;;
77984;SDS011;67177;47.240;-1.546;2023-02-18T01:27:22;1.33;;;0.40;;
77984;SDS011;67177;47.240;-1.546;2023-02-18T01:29:48;1.40;;;0.50;;
77984;SDS011;67177;47.240;-1.546;2023-02-18T01:32:14;1.15;;;0.40;;
77984;SDS011;67177;47.240;-1.546;2023-02-18T01:34:39;1.40;;;0.50;;
77984;SDS011;67177;47.240;-1.546;2023-02-18T01:37:05;1.58;;;0.50;;
77984;SDS011;67177;47.240;-1.546;2023-02-18T01:39:31;1.63;;;0.50;;
77984;SDS011;67177;47.240;-1.546;2023-02-18T01:41:56;1.27;;;0.50;;
77984;SDS011;67177;47.240;-1.546;2023-02-18T01:44:23;0.93;;;0.33;;
77984;SDS011;67177;47.240;-1.546;2023-02-18T01:46:51;1.75;;;0.50;;
77984;SDS011;67177;47.240;-1.546;2023-02-18T01:49:20;1.65;;;0.50;;
77984;SDS011;67177;47.240;-1.546;2023-02-18T01:51:51;1.70;;;0.50;;
77984;SDS011;67177;47.240;-1.546;2023-02-18T01:54:29;1.80;;;0.50;;
77984;SDS011;67177;47.240;-1.546;2023-02-18T01:59:38;2.10;;;0.60;;
77984;SDS011;67177;47.240;-1.546;2023-02-18T02:02:10;2.38;;;0.60;;
77984;SDS011;67177;47.240;-1.546;2023-02-18T02:04:39;2.60;;;0.80;;
77984;SDS011;67177;47.240;-1.546;2023-02-18T02:07:05;2.10;;;0.57;;
77984;SDS011;67177;47.240;-1.546;2023-02-18T02:09:31;2.03;;;0.60;;
77984;SDS011;67177;47.240;-1.546;2023-02-18T02:12:09;2.90;;;0.60;;
77984;SDS011;67177;47.240;-1.546;2023-02-18T02:14:50;2.42;;;0.60;;
77984;SDS011;67177;47.240;-1.546;2023-02-18T02:36:13;3.33;;;0.90;;
77984;SDS011;67177;47.240;-1.546;2023-02-18T02:38:52;3.50;;;1.00;;
77984;SDS011;67177;47.240;-1.546;2023-02-18T02:41:38;3.10;;;0.90;;
77984;SDS011;67177;47.240;-1.546;2023-02-18T02:44:20;3.67;;;1.00;;
77984;SDS011;67177;47.240;-1.546;2023-02-18T02:46:52;3.07;;;0.90;;
77984;SDS011;67177;47.240;-1.546;2023-02-18T02:49:35;3.40;;;0.98;;
77984;SDS011;67177;47.240;-1.546;2023-02-18T02:55:05;3.47;;;0.90;;
77984;SDS011;67177;47.240;-1.546;2023-02-18T03:00:08;3.23;;;0.90;;
77984;SDS011;67177;47.240;-1.546;2023-02-18T03:02:59;3.92;;;1.20;;
77984;SDS011;67177;47.240;-1.546;2023-02-18T03:11:03;4.05;;;1.30;;
77984;SDS011;67177;47.240;-1.546;2023-02-18T03:16:27;4.30;;;1.10;;
77984;SDS011;67177;47.240;-1.546;2023-02-18T03:19:39;3.65;;;1.00;;
77984;SDS011;67177;47.240;-1.546;2023-02-18T03:24:45;2.95;;;0.80;;
77984;SDS011;67177;47.240;-1.546;2023-02-18T03:27:49;2.83;;;0.80;;
77984;SDS011;67177;47.240;-1.546;2023-02-18T03:30:17;3.42;;;0.93;;
77984;SDS011;67177;47.240;-1.546;2023-02-18T03:32:46;3.05;;;0.95;;
77984;SDS011;67177;47.240;-1.546;2023-02-18T03:35:16;3.30;;;0.80;;
77984;SDS011;67177;47.240;-1.546;2023-02-18T03:40:55;2.53;;;0.70;;
77984;SDS011;67177;47.240;-1.546;2023-02-18T03:43:22;2.92;;;0.80;;
77984;SDS011;67177;47.240;-1.546;2023-02-18T03:45:48;2.78;;;0.68;;
77984;SDS011;67177;47.240;-1.546;2023-02-18T03:48:13;2.77;;;0.80;;
77984;SDS011;67177;47.240;-1.546;2023-02-18T03:50:39;2.97;;;0.90;;
77984;SDS011;67177;47.240;-1.546;2023-02-18T03:53:05;2.77;;;0.80;;
77984;SDS011;67177;47.240;-1.546;2023-02-18T03:55:30;2.83;;;0.80;;
77984;SDS011;67177;47.240;-1.546;2023-02-18T03:57:56;2.80;;;0.70;;
77984;SDS011;67177;47.240;-1.546;2023-02-18T04:00:22;2.87;;;0.73;;
77984;SDS011;67177;47.240;-1.546;2023-02-18T04:02:47;2.25;;;0.63;;
77984;SDS011;67177;47.240;-1.546;2023-02-18T04:05:13;2.67;;;0.70;;
77984;SDS011;67177;47.240;-1.546;2023-02-18T04:07:39;2.90;;;0.75;;
77984;SDS011;67177;47.240;-1.546;2023-02-18T04:10:05;2.73;;;0.80;;
77984;SDS011;67177;47.240;-1.546;2023-02-18T04:12:32;2.90;;;0.80;;
77984;SDS011;67177;47.240;-1.546;2023-02-18T04:14:58;2.60;;;0.70;;
77984;SDS011;67177;47.240;-1.546;2023-02-18T04:17:23;2.53;;;0.80;;
77984;SDS011;67177;47.240;-1.546;2023-02-18T04:19:49;2.50;;;0.70;;
77984;SDS011;67177;47.240;-1.546;2023-02-18T04:22:14;2.47;;;0.70;;
